Time;durP1;ratioP1;P1;durP2;ratioP2;P2;SDS_P1;SDS_P2;PMS_P1;PMS_P2;Temp;Humidity;BMP_temperature;BMP_pressure;BME280_temperature;BME280_humidity;BME280_pressure;Samples;Min_cycle;Max_cycle;Signal;HPM_P1;HPM_P2
2021/03/01 00:00:34;;;;;;;15.23;9.47;;;;;;;6.07;59.62;95954.00;5093732;28;20503;-78
2021/03/01 00:03:00;;;;;;;16.07;9.13;;;;;;;6.00;59.78;95950.88;5093091;28;20492;-77
2021/03/01 00:05:26;;;;;;;15.07;9.37;;;;;;;5.93;60.12;95952.09;5093675;28;20952;-78
2021/03/01 00:07:54;;;;;;;12.20;8.40;;;;;;;5.93;60.18;95965.13;5094084;28;20431;-78
2021/03/01 00:10:21;;;;;;;10.57;8.43;;;;;;;5.87;60.17;95957.59;5093787;28;20448;-78
2021/03/01 00:12:47;;;;;;;12.70;8.50;;;;;;;5.82;60.78;95950.00;5042614;28;20438;-78
2021/03/01 00:15:16;;;;;;;13.87;9.17;;;;;;;5.80;60.55;95956.22;5093997;28;20439;-77
2021/03/01 00:17:43;;;;;;;15.60;9.00;;;;;;;5.77;60.56;95951.13;5094352;28;20511;-78
2021/03/01 00:20:11;;;;;;;11.37;8.80;;;;;;;5.74;61.33;95956.47;5093949;28;20499;-78
2021/03/01 00:22:38;;;;;;;14.60;9.03;;;;;;;5.73;60.62;95946.97;5094174;28;20438;-78
2021/03/01 00:25:07;;;;;;;13.40;9.43;;;;;;;5.70;61.23;95952.34;5093573;28;20471;-78
2021/03/01 00:27:33;;;;;;;13.50;8.40;;;;;;;5.67;60.47;95939.47;5094068;28;20451;-78
2021/03/01 00:29:59;;;;;;;14.67;9.53;;;;;;;5.68;61.39;95943.75;5094086;28;20483;-78
2021/03/01 00:32:26;;;;;;;12.63;9.23;;;;;;;5.62;60.36;95938.88;5093924;28;20424;-78
2021/03/01 00:34:53;;;;;;;14.47;9.43;;;;;;;5.58;60.38;95944.22;5093931;28;20431;-78
2021/03/01 00:37:19;;;;;;;12.53;8.63;;;;;;;5.51;61.62;95940.25;5093503;28;20458;-78
2021/03/01 00:39:45;;;;;;;12.70;8.23;;;;;;;5.48;61.66;95940.34;5093669;28;20451;-78
2021/03/01 00:42:13;;;;;;;19.47;8.97;;;;;;;5.49;61.71;95941.19;5094186;28;20452;-78
2021/03/01 00:44:39;;;;;;;11.83;7.97;;;;;;;5.46;60.80;95929.19;5093438;28;20967;-78
2021/03/01 00:47:05;;;;;;;12.17;7.10;;;;;;;5.42;61.31;95930.25;5058599;28;20788;-78
2021/03/01 00:49:32;;;;;;;14.30;9.00;;;;;;;5.41;61.06;95938.13;5093618;28;20432;-78
2021/03/01 00:51:58;;;;;;;14.03;8.77;;;;;;;5.39;61.96;95930.41;5093610;28;20439;-77
2021/03/01 00:54:24;;;;;;;10.77;7.77;;;;;;;5.38;61.53;95923.50;5093474;28;20442;-78
2021/03/01 00:56:51;;;;;;;11.93;9.00;;;;;;;5.40;61.90;95924.28;5093020;28;20451;-77
2021/03/01 00:59:18;;;;;;;11.43;8.07;;;;;;;5.33;62.04;95914.25;5092988;28;20439;-78
2021/03/01 01:01:44;;;;;;;13.60;7.90;;;;;;;5.29;61.49;95914.38;5092952;28;20955;-78
2021/03/01 01:04:11;;;;;;;12.93;7.53;;;;;;;5.28;62.33;95914.47;5093135;28;20466;-78
2021/03/01 01:06:37;;;;;;;10.77;7.77;;;;;;;5.23;61.70;95908.63;5092819;28;20440;-78
2021/03/01 01:09:04;;;;;;;19.03;8.83;;;;;;;5.18;62.82;95910.59;5092948;28;20443;-77
2021/03/01 01:11:30;;;;;;;14.50;8.80;;;;;;;5.08;62.49;95909.34;5057564;28;20788;-77
2021/03/01 01:13:57;;;;;;;11.80;8.37;;;;;;;5.06;61.89;95911.19;5094631;28;20455;-77
2021/03/01 01:16:24;;;;;;;15.13;8.10;;;;;;;5.06;62.21;95903.38;5097263;28;20522;-77
2021/03/01 01:18:50;;;;;;;13.33;8.27;;;;;;;5.04;63.28;95900.00;5097306;28;20451;-78
2021/03/01 01:21:17;;;;;;;14.47;8.83;;;;;;;4.99;62.85;95902.81;5096908;28;20438;-77
2021/03/01 01:23:43;;;;;;;9.80;8.17;;;;;;;4.97;63.36;95895.09;5097133;28;20479;-78
2021/03/01 01:26:09;;;;;;;19.30;9.20;;;;;;;4.96;63.19;95897.78;5097497;28;20798;-77
2021/03/01 01:28:36;;;;;;;9.30;7.40;;;;;;;4.87;63.26;95891.22;5097358;28;20447;-77
2021/03/01 01:31:02;;;;;;;14.00;8.40;;;;;;;4.89;62.94;95897.19;5097086;28;20463;-77
2021/03/01 01:33:29;;;;;;;12.50;7.67;;;;;;;4.86;63.10;95897.34;5097391;28;20426;-77
2021/03/01 01:35:56;;;;;;;9.77;7.03;;;;;;;4.87;62.24;95888.63;5097236;28;20439;-77
2021/03/01 01:38:22;;;;;;;11.77;7.47;;;;;;;4.75;63.41;95891.78;5096838;28;20935;-78
2021/03/01 01:40:48;;;;;;;9.67;6.90;;;;;;;4.73;63.65;95892.78;5061552;28;20441;-78
2021/03/01 01:43:15;;;;;;;11.57;7.13;;;;;;;4.68;63.37;95884.34;5096415;28;20447;-77
2021/03/01 01:45:41;;;;;;;9.70;7.00;;;;;;;4.65;63.28;95885.34;5096589;28;20432;-78
2021/03/01 01:48:08;;;;;;;11.93;7.63;;;;;;;4.63;64.08;95892.38;5096503;28;20945;-78
2021/03/01 01:50:35;;;;;;;12.60;6.70;;;;;;;4.62;63.64;95895.84;5096853;28;20931;-77
2021/03/01 01:53:02;;;;;;;14.13;8.17;;;;;;;4.61;63.98;95897.59;5097035;28;20428;-77
2021/03/01 01:55:29;;;;;;;13.33;7.73;;;;;;;4.61;64.13;95889.81;5096611;28;20443;-77
2021/03/01 01:57:55;;;;;;;15.13;7.93;;;;;;;4.59;64.17;95890.78;5096568;28;20442;-78
2021/03/01 02:00:37;;;;;;;12.10;7.00;;;;;;;4.57;64.66;95888.25;5096985;28;20434;-78
2021/03/01 02:03:13;;;;;;;10.13;7.10;;;;;;;4.56;63.69;95880.53;5096460;28;20458;-78
2021/03/01 02:05:41;;;;;;;12.83;8.17;;;;;;;4.57;64.18;95892.63;5096656;28;20432;-78
2021/03/01 02:08:13;;;;;;;14.00;7.63;;;;;;;4.60;63.61;95887.28;5096237;28;20452;-78
2021/03/01 02:10:46;;;;;;;10.60;6.93;;;;;;;4.57;63.65;95890.03;5096840;28;20780;-78
2021/03/01 02:13:21;;;;;;;11.43;7.70;;;;;;;4.56;64.40;95893.53;5095949;28;20486;-78
2021/03/01 02:15:52;;;;;;;9.67;7.00;;;;;;;4.52;63.84;95892.00;5096310;28;20946;-78
2021/03/01 02:18:18;;;;;;;11.18;8.13;;;;;;;4.54;64.16;95892.75;5096016;28;20897;-77
2021/03/01 02:20:46;;;;;;;12.70;8.27;;;;;;;4.45;64.59;95888.00;5095610;28;20205;-78
2021/03/01 02:23:15;;;;;;;9.07;7.80;;;;;;;4.49;63.72;95892.13;5095535;28;20443;-78
2021/03/01 02:25:47;;;;;;;9.10;7.60;;;;;;;4.43;64.70;95898.44;5094735;28;20443;-78
2021/03/01 02:28:15;;;;;;;15.83;7.87;;;;;;;4.42;64.60;95888.13;5095362;28;20435;-78
2021/03/01 02:30:46;;;;;;;11.80;8.00;;;;;;;4.40;64.50;95889.94;5095445;28;20483;-78
2021/03/01 02:33:18;;;;;;;17.00;8.07;;;;;;;4.45;64.40;95888.84;5095509;28;20838;-78
2021/03/01 02:35:50;;;;;;;10.57;6.80;;;;;;;4.44;64.62;95886.31;5095233;28;20443;-78
2021/03/01 02:38:21;;;;;;;10.80;7.50;;;;;;;4.44;65.00;95889.75;5095381;28;20447;-78
2021/03/01 02:40:49;;;;;;;12.97;7.10;;;;;;;4.42;65.08;95886.38;5095272;28;20451;-78
2021/03/01 02:43:17;;;;;;;10.27;7.37;;;;;;;4.31;64.87;95878.19;5095154;28;20447;-78
2021/03/01 02:45:46;;;;;;;10.90;6.70;;;;;;;4.28;65.44;95879.19;5095416;28;20443;-77
2021/03/01 02:48:13;;;;;;;13.57;8.93;;;;;;;4.21;64.78;95864.78;5095480;28;20861;-78
2021/03/01 02:50:40;;;;;;;13.50;7.50;;;;;;;4.22;65.22;95879.44;5094953;28;20455;-78
2021/03/01 02:53:07;;;;;;;17.30;7.57;;;;;;;4.21;65.24;95877.78;5095646;28;20569;-78
2021/03/01 02:55:36;;;;;;;13.07;8.20;;;;;;;4.21;65.03;95877.78;5095142;28;20857;-78
2021/03/01 02:58:03;;;;;;;16.00;8.23;;;;;;;4.15;65.77;95870.25;5095444;28;20923;-78
2021/03/01 03:00:30;;;;;;;10.80;7.27;;;;;;;4.17;65.08;95878.81;5095148;28;20484;-77
2021/03/01 03:02:58;;;;;;;15.27;8.20;;;;;;;4.15;65.39;95870.25;5095184;28;20439;-77
2021/03/01 03:05:27;;;;;;;16.20;8.30;;;;;;;4.11;65.72;95879.09;5094807;28;20484;-78
2021/03/01 03:07:55;;;;;;;11.87;6.90;;;;;;;4.03;65.63;95875.97;5095350;28;20439;-78
2021/03/01 03:10:22;;;;;;;14.80;8.13;;;;;;;3.91;67.87;95873.91;5095014;28;20951;-78
2021/03/01 03:12:49;;;;;;;11.90;7.63;;;;;;;3.87;67.15;95878.38;5094700;28;20439;-78
2021/03/01 03:15:19;;;;;;;11.67;7.80;;;;;;;3.81;66.51;95870.03;5042648;28;20484;-78
2021/03/01 03:17:47;;;;;;;12.10;7.70;;;;;;;3.86;66.94;95876.72;5094914;28;20477;-78
2021/03/01 03:20:14;;;;;;;15.80;7.37;;;;;;;3.92;66.85;95873.00;5094913;28;20443;-77
2021/03/01 03:22:41;;;;;;;13.17;7.63;;;;;;;3.93;66.17;95872.09;5094505;28;20447;-78
2021/03/01 03:25:08;;;;;;;11.27;7.10;;;;;;;3.94;66.20;95866.81;5059301;28;20572;-77
2021/03/01 03:27:35;;;;;;;15.27;8.00;;;;;;;3.92;65.85;95863.47;5095349;28;20440;-77
2021/03/01 03:30:06;;;;;;;11.00;7.17;;;;;;;3.94;65.62;95866.81;5095075;28;20483;-79
2021/03/01 03:32:32;;;;;;;15.70;6.67;;;;;;;3.96;66.12;95866.75;5094511;28;20424;-78
2021/03/01 03:34:59;;;;;;;11.40;7.53;;;;;;;3.97;66.10;95860.66;5095476;28;21002;-77
2021/03/01 03:37:31;;;;;;;13.60;8.30;;;;;;;3.97;65.94;95871.03;5095035;28;20458;-79
2021/03/01 03:39:59;;;;;;;18.47;7.63;;;;;;;3.94;66.03;95868.59;5096254;28;20469;-77
2021/03/01 03:42:28;;;;;;;13.90;6.10;;;;;;;3.82;65.89;95856.97;5095830;28;20455;-77
2021/03/01 03:44:57;;;;;;;12.90;8.27;;;;;;;3.78;65.96;95867.56;5095577;28;20545;-78
2021/03/01 03:47:25;;;;;;;10.50;7.63;;;;;;;3.71;66.20;95860.00;5095341;28;20447;-78
2021/03/01 03:49:55;;;;;;;10.47;7.67;;;;;;;3.68;66.53;95862.75;5095617;28;20850;-77
2021/03/01 03:52:26;;;;;;;12.30;7.23;;;;;;;3.70;65.74;95865.28;5094930;28;20439;-78
2021/03/01 03:54:54;;;;;;;12.43;8.40;;;;;;;3.74;66.24;95864.22;5095106;28;20436;-77
2021/03/01 03:57:24;;;;;;;21.07;8.10;;;;;;;3.79;65.81;95864.06;5042717;28;20492;-78
2021/03/01 03:59:53;;;;;;;12.77;8.60;;;;;;;3.78;65.91;95859.78;5094909;28;20471;-77
2021/03/01 04:02:21;;;;;;;12.50;8.43;;;;;;;3.74;66.61;95865.06;5094272;28;20436;-77
2021/03/01 04:04:50;;;;;;;12.00;7.50;;;;;;;3.72;66.25;95871.25;5094284;28;20989;-77
2021/03/01 04:07:17;;;;;;;11.50;7.65;;;;;;;3.71;66.41;95870.41;5095171;28;20444;-77
2021/03/01 04:09:45;;;;;;;9.70;7.80;;;;;;;3.74;66.06;95872.84;5094654;28;20182;-78
2021/03/01 04:12:14;;;;;;;10.37;7.40;;;;;;;3.72;66.26;95863.44;5094255;28;20201;-77
2021/03/01 04:14:41;;;;;;;14.37;9.33;;;;;;;3.71;66.23;95864.38;5094262;28;20892;-77
2021/03/01 04:17:12;;;;;;;13.03;8.33;;;;;;;3.62;66.54;95859.56;5094548;28;20443;-77
2021/03/01 04:19:40;;;;;;;13.10;8.07;;;;;;;3.55;66.62;95861.59;5094139;28;20452;-77
2021/03/01 04:22:08;;;;;;;15.73;8.07;;;;;;;3.57;66.80;95872.75;5094045;28;20424;-77
2021/03/01 04:24:38;;;;;;;12.27;7.23;;;;;;;3.55;66.57;95866.78;5094030;28;20493;-76
2021/03/01 04:27:05;;;;;;;9.00;6.97;;;;;;;3.52;66.50;95877.28;5093759;28;20428;-77
2021/03/01 04:29:32;;;;;;;10.67;7.43;;;;;;;3.50;66.98;95868.72;5086002;28;20569;-77
2021/03/01 04:31:59;;;;;;;15.25;7.90;;;;;;;3.49;67.12;95880.00;5058286;28;20443;-77
2021/03/01 04:34:27;;;;;;;11.80;8.47;;;;;;;3.50;66.36;95875.66;5093381;28;20266;-77
2021/03/01 04:36:55;;;;;;;15.70;8.75;;;;;;;3.54;66.77;95875.47;5042007;28;20441;-77
2021/03/01 04:39:26;;;;;;;17.33;9.00;;;;;;;3.58;66.51;95873.59;5094236;28;20193;-77
2021/03/01 04:41:53;;;;;;;28.67;11.53;;;;;;;3.56;66.53;95871.06;5093936;28;20424;-77
2021/03/01 04:44:20;;;;;;;14.13;8.27;;;;;;;3.56;66.44;95871.06;5094087;28;20982;-77
2021/03/01 04:46:52;;;;;;;11.83;7.80;;;;;;;3.60;66.64;95874.38;5094289;28;20427;-77
2021/03/01 04:49:19;;;;;;;13.40;8.35;;;;;;;3.58;66.88;95869.25;5096311;28;20438;-76
2021/03/01 04:51:46;;;;;;;20.77;9.40;;;;;;;3.44;67.26;95871.53;5097771;28;20431;-77
2021/03/01 04:54:13;;;;;;;13.18;8.38;;;;;;;2.80;69.54;95879.31;5098152;28;20935;-77
2021/03/01 04:56:43;;;;;;;14.80;9.35;;;;;;;2.89;69.17;95873.78;5098592;28;20242;-77
2021/03/01 04:59:10;;;;;;;18.07;10.03;;;;;;;2.91;69.21;95877.16;5062633;28;20189;-78
2021/03/01 05:01:38;;;;;;;25.88;13.45;;;;;;;2.96;69.73;95872.63;5098268;28;20811;-80
2021/03/01 05:04:06;;;;;;;26.35;15.88;;;;;;;2.98;69.14;95877.75;5097771;28;20251;-78
2021/03/01 05:06:33;;;;;;;31.20;15.50;;;;;;;2.90;69.63;95879.81;5098060;28;20193;-78
2021/03/01 05:09:01;;;;;;;28.67;14.38;;;;;;;2.96;69.54;95875.22;5098273;28;20188;-78
2021/03/01 05:11:33;;;;;;;26.38;15.68;;;;;;;2.87;69.64;95885.09;5062571;28;20197;-78
2021/03/01 05:14:00;;;;;;;29.05;16.75;;;;;;;2.94;70.12;95891.75;5097070;28;20259;-77
2021/03/01 05:16:27;;;;;;;28.67;16.30;;;;;;;2.94;69.86;95892.59;5096679;28;20197;-77
2021/03/01 05:18:54;;;;;;;26.35;16.10;;;;;;;2.94;70.28;95887.41;5096308;28;20935;-78
2021/03/01 05:21:20;;;;;;;25.90;16.02;;;;;;;2.98;69.61;95894.16;5096783;28;20202;-78
2021/03/01 05:23:47;;;;;;;36.30;16.48;;;;;;;3.02;70.11;95895.72;5096680;28;20225;-78
2021/03/01 05:26:14;;;;;;;26.50;16.90;;;;;;;3.06;69.80;95892.09;5096899;28;20642;-78
2021/03/01 05:28:40;;;;;;;36.70;16.37;;;;;;;3.20;69.73;95906.28;5096564;28;20649;-78
2021/03/01 05:31:08;;;;;;;35.20;14.30;;;;;;;3.26;69.26;95908.63;5044588;28;20982;-78
2021/03/01 05:33:35;;;;;;;38.53;13.03;;;;;;;3.61;69.24;95902.84;5096640;28;20450;-78
2021/03/01 05:36:01;;;;;;;17.90;11.80;;;;;;;4.38;66.74;95897.81;5097365;28;20428;-78
2021/03/01 05:38:28;;;;;;;17.00;10.83;;;;;;;5.35;63.57;95902.00;5096981;28;20428;-78
2021/03/01 05:40:55;;;;;;;21.27;13.77;;;;;;;6.38;59.58;95899.41;5097422;28;20485;-79
2021/03/01 05:43:26;;;;;;;17.93;11.30;;;;;;;7.16;56.66;95900.44;5096799;28;20560;-79
2021/03/01 05:45:52;;;;;;;17.73;11.90;;;;;;;7.98;53.56;95900.94;5097025;28;20504;-78
2021/03/01 05:48:22;;;;;;;33.27;12.67;;;;;;;8.58;51.55;95900.88;5096126;28;20519;-78
2021/03/01 05:50:53;;;;;;;17.43;10.77;;;;;;;9.04;49.96;95900.69;5096584;28;20435;-78
2021/03/01 05:53:25;;;;;;;21.80;11.67;;;;;;;9.45;48.59;95892.81;5096439;28;20440;-78
2021/03/01 05:55:51;;;;;;;18.37;11.33;;;;;;;9.93;46.88;95882.69;5061287;28;21024;-78
2021/03/01 05:58:18;;;;;;;26.23;11.80;;;;;;;10.34;46.10;95882.56;5095730;28;20447;-78
2021/03/01 06:00:46;;;;;;;21.00;10.97;;;;;;;10.55;44.71;95880.25;5094129;28;20476;-79
2021/03/01 06:03:13;;;;;;;22.43;11.03;;;;;;;10.80;44.93;95885.50;5096364;28;20435;-78
2021/03/01 06:05:41;;;;;;;29.33;10.67;;;;;;;11.15;43.87;95883.00;5096401;28;20987;-79
2021/03/01 06:08:09;;;;;;;21.37;10.90;;;;;;;11.39;43.08;95883.03;5096603;28;20459;-78
2021/03/01 06:10:35;;;;;;;17.77;13.80;;;;;;;11.55;42.43;95880.13;5096693;28;20443;-82
2021/03/01 06:13:02;;;;;;;28.70;15.57;;;;;;;11.75;42.68;95876.88;5061605;28;20439;-78
2021/03/01 06:15:29;;;;;;;25.90;13.00;;;;;;;11.97;42.59;95875.31;5097054;28;20454;-78
2021/03/01 06:18:09;;;;;;;25.53;13.50;;;;;;;12.12;42.44;95871.53;5096097;28;20447;-79
2021/03/01 06:20:37;;;;;;;24.63;15.47;;;;;;;12.27;42.08;95870.38;5096393;28;20503;-82
2021/03/01 06:23:04;;;;;;;40.13;16.90;;;;;;;12.29;43.80;95857.13;5096405;28;20451;-78
2021/03/01 06:25:32;;;;;;;21.13;12.37;;;;;;;12.45;42.42;95854.16;5095991;28;20487;-78
2021/03/01 06:27:59;;;;;;;35.40;15.47;;;;;;;12.68;41.70;95847.94;5096780;28;20448;-80
2021/03/01 06:30:28;;;;;;;27.70;16.83;;;;;;;12.87;40.62;95850.81;5095983;28;20479;-78
2021/03/01 06:33:12;;;;;;;39.60;14.13;;;;;;;12.83;39.76;95840.66;5096049;28;20447;-78
2021/03/01 06:35:45;;;;;;;18.03;11.50;;;;;;;12.78;41.52;95838.38;5086923;28;20528;-80
2021/03/01 06:38:30;;;;;;;20.93;13.53;;;;;;;12.48;40.20;95833.69;5095984;28;20978;-80
2021/03/01 06:41:08;;;;;;;19.93;11.80;;;;;;;12.19;42.05;95841.19;5096035;28;20480;-79
2021/03/01 06:43:35;;;;;;;26.40;16.90;;;;;;;11.76;42.43;95841.75;5096377;28;20451;-79
2021/03/01 06:46:12;;;;;;;38.63;21.30;;;;;;;11.25;45.61;95841.13;5095927;28;20435;-80
2021/03/01 06:48:40;;;;;;;32.23;17.00;;;;;;;10.27;46.83;95833.25;5095545;28;20507;-79
2021/03/01 06:51:07;;;;;;;18.53;12.53;;;;;;;9.68;49.33;95836.28;5095499;28;20439;-78
2021/03/01 06:53:35;;;;;;;18.67;12.20;;;;;;;9.24;50.02;95840.00;5095543;28;20449;-79
2021/03/01 06:56:04;;;;;;;20.50;11.77;;;;;;;9.07;50.67;95845.50;5095420;28;20449;-82
2021/03/01 06:58:36;;;;;;;27.60;14.93;;;;;;;8.92;55.23;95854.31;5095629;28;20452;-79
2021/03/01 07:01:10;;;;;;;20.63;13.43;;;;;;;8.16;53.30;95866.84;5095103;28;20803;-80
2021/03/01 07:03:42;;;;;;;18.93;13.87;;;;;;;8.14;53.72;95866.09;5042650;28;20434;-79
2021/03/01 07:06:09;;;;;;;40.13;20.03;;;;;;;8.33;53.59;95869.25;5095043;28;20449;-80
2021/03/01 07:08:46;;;;;;;33.70;16.70;;;;;;;8.64;53.83;95861.25;5059519;28;20463;-79
2021/03/01 07:11:27;;;;;;;20.70;13.80;;;;;;;8.63;53.41;95870.03;5094330;28;20444;-80
2021/03/01 07:13:55;;;;;;;16.97;11.70;;;;;;;8.65;53.59;95870.78;5095317;28;20435;-80
2021/03/01 07:16:22;;;;;;;18.70;13.40;;;;;;;8.62;54.08;95878.81;5095269;28;20442;-79
2021/03/01 07:18:51;;;;;;;24.50;15.43;;;;;;;8.66;53.42;95885.53;5095358;28;20449;-81
2021/03/01 07:21:19;;;;;;;13.73;11.53;;;;;;;8.40;54.58;95894.16;5060366;28;20448;-79
2021/03/01 07:23:48;;;;;;;24.07;14.87;;;;;;;8.26;54.25;95899.31;5095112;28;20473;-80
2021/03/01 07:26:16;;;;;;;27.73;14.87;;;;;;;7.98;58.21;95890.50;5094170;28;20496;-79
2021/03/01 07:28:44;;;;;;;18.43;12.10;;;;;;;7.88;56.25;95889.38;5075603;28;20937;-79
2021/03/01 07:31:16;;;;;;;24.57;14.87;;;;;;;7.84;56.10;95906.16;5074949;28;20463;-79
2021/03/01 07:33:42;;;;;;;22.70;13.93;;;;;;;7.48;56.93;95911.69;5074691;28;20440;-79
2021/03/01 07:36:12;;;;;;;27.90;15.10;;;;;;;7.50;57.21;95904.59;5022990;28;20500;-79
2021/03/01 07:38:39;;;;;;;20.13;13.27;;;;;;;7.55;57.75;95904.38;5078324;28;20437;-79
2021/03/01 07:41:06;;;;;;;24.23;14.63;;;;;;;7.48;57.86;95901.22;5094361;28;20938;-79
2021/03/01 07:43:35;;;;;;;20.70;12.90;;;;;;;7.51;59.16;95900.22;5040427;28;20987;-79
2021/03/01 07:46:03;;;;;;;22.80;13.53;;;;;;;7.58;57.66;95891.13;5093201;28;20574;-78
2021/03/01 07:48:40;;;;;;;18.30;11.53;;;;;;;7.64;58.50;95896.84;5094224;28;20439;-79
2021/03/01 07:51:07;;;;;;;22.20;13.87;;;;;;;7.80;58.99;95903.78;5094007;28;20984;-79
2021/03/01 07:53:48;;;;;;;26.90;14.80;;;;;;;7.85;59.67;95889.53;5094069;28;20530;-80
2021/03/01 07:56:49;;;;;;;16.00;12.57;;;;;;;7.77;57.56;95883.91;5094480;28;20558;-80
2021/03/01 07:59:31;;;;;;;28.73;15.37;;;;;;;7.99;58.18;95892.19;5094782;28;20451;-79
2021/03/01 08:02:14;;;;;;;22.87;12.90;;;;;;;8.28;56.80;95879.16;5093987;28;20440;-79
2021/03/01 08:04:41;;;;;;;17.80;12.73;;;;;;;8.46;55.84;95875.47;5012018;28;20486;-80
2021/03/01 08:07:07;;;;;;;19.93;13.40;;;;;;;8.48;55.88;95878.00;5012277;28;20559;-80
2021/03/01 08:09:51;;;;;;;16.20;11.77;;;;;;;8.40;56.31;95881.09;5012510;28;20448;-80
2021/03/01 08:12:54;;;;;;;16.20;12.07;;;;;;;8.40;55.61;95872.41;5012219;28;20448;-80
2021/03/01 08:15:23;;;;;;;15.93;12.10;;;;;;;8.50;55.04;95883.97;5012128;28;20452;-80
2021/03/01 08:17:51;;;;;;;21.87;13.83;;;;;;;8.58;54.71;95877.34;5012325;28;20451;-79
2021/03/01 08:20:32;;;;;;;25.27;12.77;;;;;;;8.61;55.50;95886.78;5012105;28;20439;-80
2021/03/01 08:23:22;;;;;;;20.57;14.53;;;;;;;8.65;54.90;95881.25;5011474;28;20536;-80
2021/03/01 08:25:57;;;;;;;25.03;16.23;;;;;;;8.75;54.92;95881.53;5011820;28;20546;-80
2021/03/01 08:28:42;;;;;;;18.87;13.97;;;;;;;8.76;54.39;95879.78;5011880;28;20466;-80
2021/03/01 08:31:42;;;;;;;27.07;16.30;;;;;;;8.51;55.70;95872.56;5011502;28;20979;-79
2021/03/01 08:34:28;;;;;;;22.93;13.80;;;;;;;8.45;55.31;95873.78;5011853;28;20447;-80
2021/03/01 08:36:56;;;;;;;25.70;14.60;;;;;;;8.37;55.67;95857.72;5011718;28;20443;-79
2021/03/01 08:39:55;;;;;;;28.60;15.63;;;;;;;8.38;56.16;95869.84;5011629;28;20450;-79
2021/03/01 08:42:44;;;;;;;23.47;14.83;;;;;;;8.34;55.96;95869.19;5055280;28;20854;-79
2021/03/01 08:45:11;;;;;;;21.50;15.93;;;;;;;8.47;55.88;95866.69;5083905;28;20479;-79
2021/03/01 08:47:48;;;;;;;25.20;13.20;;;;;;;8.46;56.61;95859.78;5093894;28;20440;-79
2021/03/01 08:50:20;;;;;;;21.40;15.00;;;;;;;8.76;55.79;95871.91;5093468;28;20443;-79
2021/03/01 08:52:48;;;;;;;28.47;16.50;;;;;;;9.04;54.82;95871.03;5093761;28;20447;-79
2021/03/01 08:55:17;;;;;;;17.57;14.10;;;;;;;9.20;53.17;95875.19;5093769;28;20494;-79
2021/03/01 08:58:02;;;;;;;24.97;14.07;;;;;;;9.36;51.60;95866.38;5093456;28;20950;-79
2021/03/01 09:00:30;;;;;;;21.73;13.10;;;;;;;9.31;52.08;95861.44;5093965;28;20445;-79
2021/03/01 09:03:18;;;;;;;20.03;12.67;;;;;;;9.30;52.82;95857.13;5094274;28;20444;-79
2021/03/01 09:05:46;;;;;;;22.47;14.00;;;;;;;9.38;53.25;95861.88;5094524;28;20491;-79
2021/03/01 09:08:14;;;;;;;16.60;11.30;;;;;;;9.49;52.62;95862.00;5098712;28;20519;-78
2021/03/01 09:10:42;;;;;;;18.57;13.17;;;;;;;9.73;51.61;95864.81;5098774;28;20476;-78
2021/03/01 09:13:11;;;;;;;12.33;9.70;;;;;;;10.00;54.53;95856.91;5099427;28;20448;-79
2021/03/01 09:15:37;;;;;;;14.10;11.10;;;;;;;10.14;50.22;95865.53;5099448;28;20447;-80
2021/03/01 09:18:08;;;;;;;18.00;11.73;;;;;;;10.12;49.67;95856.06;5080449;28;20433;-78
2021/03/01 09:20:44;;;;;;;19.60;10.70;;;;;;;10.05;48.70;95862.66;5097635;28;20450;-80
2021/03/01 09:23:10;;;;;;;16.17;11.63;;;;;;;10.04;49.60;95853.13;5094657;28;20434;-80
2021/03/01 09:25:37;;;;;;;16.67;11.00;;;;;;;10.18;49.63;95861.75;5093358;28;20489;-79
2021/03/01 09:28:05;;;;;;;15.00;10.90;;;;;;;10.24;48.36;95861.34;5041996;28;20955;-79
2021/03/01 09:30:33;;;;;;;22.00;12.37;;;;;;;10.20;47.97;95864.28;5093783;28;20470;-79
2021/03/01 09:33:02;;;;;;;23.13;11.40;;;;;;;9.93;48.56;95862.56;5093502;28;20999;-79
2021/03/01 09:35:32;;;;;;;22.40;12.67;;;;;;;9.90;49.30;95860.13;5095597;28;20441;-79
2021/03/01 09:37:59;;;;;;;18.63;11.90;;;;;;;9.92;49.70;95860.03;5097271;28;20520;-79
2021/03/01 09:40:27;;;;;;;15.40;12.20;;;;;;;9.96;48.71;95865.91;5096866;28;20441;-79
2021/03/01 09:42:56;;;;;;;22.27;10.97;;;;;;;9.77;47.83;95855.78;5096983;28;20452;-79
2021/03/01 09:45:23;;;;;;;17.30;11.77;;;;;;;9.62;48.27;95871.59;5096768;28;21003;-79
2021/03/01 09:47:51;;;;;;;14.30;11.40;;;;;;;9.69;48.44;95866.78;5096366;28;20434;-79
2021/03/01 09:50:19;;;;;;;13.30;10.20;;;;;;;9.57;48.80;95859.75;5096853;28;20500;-78
2021/03/01 09:52:49;;;;;;;21.63;12.77;;;;;;;9.81;48.52;95863.34;5096262;28;20565;-79
2021/03/01 09:55:20;;;;;;;22.47;13.57;;;;;;;9.93;48.48;95864.34;5096924;28;20841;-78
2021/03/01 09:57:47;;;;;;;29.20;15.40;;;;;;;10.04;47.76;95869.69;5096232;28;20444;-79
2021/03/01 10:00:27;;;;;;;14.60;10.30;;;;;;;9.94;47.17;95866.00;5096329;28;20438;-80
2021/03/01 10:03:01;;;;;;;15.80;10.10;;;;;;;9.67;46.91;95871.28;5096435;28;20904;-79
2021/03/01 10:05:30;;;;;;;15.03;10.97;;;;;;;9.55;47.23;95865.09;5096388;28;20471;-79
2021/03/01 10:07:59;;;;;;;13.07;9.63;;;;;;;9.62;46.50;95868.13;5096359;28;20542;-78
2021/03/01 10:10:34;;;;;;;16.97;10.87;;;;;;;9.82;46.55;95859.78;5096547;28;20437;-79
2021/03/01 10:13:01;;;;;;;21.47;10.67;;;;;;;9.88;47.88;95862.03;5096183;28;20434;-78
2021/03/01 10:15:27;;;;;;;14.77;11.70;;;;;;;10.00;47.77;95862.13;5096207;28;20453;-79
2021/03/01 10:18:05;;;;;;;17.50;10.70;;;;;;;10.10;46.41;95864.03;5096390;28;20428;-79
2021/03/01 10:20:31;;;;;;;15.80;9.47;;;;;;;10.20;44.88;95853.78;5096147;28;20448;-79
2021/03/01 10:22:59;;;;;;;20.00;11.00;;;;;;;10.33;45.21;95853.78;5096207;28;20435;-79
2021/03/01 10:25:32;;;;;;;19.80;14.40;;;;;;;10.51;44.69;95849.91;5095897;28;20489;-79
2021/03/01 10:27:59;;;;;;;14.67;10.77;;;;;;;10.58;44.66;95847.72;5096063;28;20430;-79
2021/03/01 10:30:25;;;;;;;13.03;10.40;;;;;;;10.61;44.69;95845.69;5095525;28;21004;-80
2021/03/01 10:33:07;;;;;;;15.63;9.80;;;;;;;10.61;44.71;95847.50;5095877;28;20453;-80
2021/03/01 10:35:33;;;;;;;12.43;9.30;;;;;;;10.61;43.56;95844.88;5096122;28;20805;-79
2021/03/01 10:38:01;;;;;;;13.90;11.13;;;;;;;10.42;43.45;95837.44;5095678;28;20434;-79
2021/03/01 10:40:29;;;;;;;15.00;10.47;;;;;;;10.35;44.38;95831.75;5044007;28;20889;-79
2021/03/01 10:42:57;;;;;;;18.60;10.57;;;;;;;10.41;44.50;95814.78;5096095;28;20489;-78
2021/03/01 10:45:23;;;;;;;17.87;10.97;;;;;;;10.28;44.83;95816.56;5095848;28;20490;-78
2021/03/01 10:48:00;;;;;;;15.40;10.63;;;;;;;10.27;45.64;95813.09;5094853;28;20442;-78
2021/03/01 10:50:27;;;;;;;13.67;10.20;;;;;;;10.21;45.54;95818.75;5043753;28;20486;-79
2021/03/01 10:52:54;;;;;;;17.10;11.10;;;;;;;10.30;45.97;95807.63;5095575;28;20439;-78
2021/03/01 10:55:20;;;;;;;13.93;9.33;;;;;;;10.41;44.44;95802.50;5095273;28;20879;-79
2021/03/01 10:57:47;;;;;;;14.43;10.33;;;;;;;10.67;45.55;95815.56;5059750;28;20438;-79
2021/03/01 11:00:15;;;;;;;16.40;10.10;;;;;;;10.92;44.66;95812.03;5095349;28;20799;-79
2021/03/01 11:02:42;;;;;;;10.23;8.77;;;;;;;11.01;42.88;95814.88;5095384;28;20440;-79
2021/03/01 11:05:09;;;;;;;18.20;9.70;;;;;;;11.14;43.95;95810.38;5094474;28;20490;-79
2021/03/01 11:07:36;;;;;;;21.83;13.33;;;;;;;11.24;43.64;95814.97;5041835;28;20447;-79
2021/03/01 11:10:03;;;;;;;12.73;10.37;;;;;;;11.08;43.16;95800.34;5094451;28;20538;-79
2021/03/01 11:12:29;;;;;;;14.27;10.37;;;;;;;10.88;44.10;95803.53;5094289;28;20434;-79
2021/03/01 11:14:56;;;;;;;14.60;9.33;;;;;;;10.82;43.98;95806.63;5094453;28;20560;-78
2021/03/01 11:17:23;;;;;;;11.87;9.10;;;;;;;10.52;44.10;95794.72;5094378;28;20448;-79
2021/03/01 11:19:49;;;;;;;24.23;16.03;;;;;;;10.43;44.85;95805.00;5094314;28;20497;-79
2021/03/01 11:22:17;;;;;;;22.10;13.30;;;;;;;10.37;44.87;95806.25;5094179;28;20446;-79
2021/03/01 11:24:44;;;;;;;10.87;9.77;;;;;;;10.29;45.38;95799.88;5094047;28;20475;-79
2021/03/01 11:27:10;;;;;;;20.30;13.33;;;;;;;10.33;45.52;95791.69;5093547;28;20488;-78
2021/03/01 11:29:36;;;;;;;16.30;9.97;;;;;;;10.43;46.56;95792.72;5094044;28;20450;-79
2021/03/01 11:32:03;;;;;;;12.83;9.23;;;;;;;10.50;45.42;95783.47;5058032;28;20436;-78
2021/03/01 11:34:30;;;;;;;17.47;11.33;;;;;;;10.49;45.52;95787.06;5094165;28;20451;-78
2021/03/01 11:36:57;;;;;;;20.53;12.13;;;;;;;10.50;44.28;95785.25;5092769;28;20982;-80